Time;durP1;ratioP1;P1;durP2;ratioP2;P2;SDS_P1;SDS_P2;PMS_P1;PMS_P2;Temp;Humidity;BMP_temperature;BMP_pressure;BME280_temperature;BME280_humidity;BME280_pressure;Samples;Min_cycle;Max_cycle;Signal;HPM_P1;HPM_P2
2022/03/13 00:02:15;;;;;;;20.57;9.90;;;2.80;36.50;;;;;;5219882;28;20488;-48
2022/03/13 00:04:49;;;;;;;21.53;10.43;;;2.70;36.50;;;;;;5265606;28;20473;-49
2022/03/13 00:07:21;;;;;;;11.50;8.27;;;2.70;36.60;;;;;;5260696;28;20834;-49
2022/03/13 00:09:52;;;;;;;19.17;9.37;;;2.70;36.50;;;;;;5258301;28;20458;-47
2022/03/13 00:12:30;;;;;;;14.23;8.57;;;2.60;37.20;;;;;;5262629;28;20930;-48
2022/03/13 00:15:05;;;;;;;20.77;10.53;;;2.60;36.80;;;;;;5262520;28;20189;-47
2022/03/13 00:17:35;;;;;;;22.00;10.87;;;2.60;36.80;;;;;;5262879;28;20576;-48
2022/03/13 00:20:08;;;;;;;19.63;9.00;;;2.50;36.80;;;;;;5267713;28;21163;-48
2022/03/13 00:22:39;;;;;;;19.20;9.43;;;2.50;36.70;;;;;;5266075;28;20182;-49
2022/03/13 00:25:10;;;;;;;21.60;9.60;;;2.50;36.80;;;;;;5260903;28;20439;-47
2022/03/13 00:27:41;;;;;;;20.17;9.40;;;2.50;36.50;;;;;;5277790;28;20470;-48
2022/03/13 00:30:12;;;;;;;13.83;8.43;;;2.50;36.40;;;;;;5262351;28;20447;-48
2022/03/13 00:32:43;;;;;;;17.10;9.63;;;2.50;36.30;;;;;;5264530;28;20231;-48
2022/03/13 00:35:14;;;;;;;12.83;8.77;;;2.40;36.40;;;;;;5261362;28;20439;-50
2022/03/13 00:37:44;;;;;;;21.30;9.87;;;2.30;36.40;;;;;;5269242;28;20181;-49
2022/03/13 00:40:15;;;;;;;14.13;8.73;;;2.30;36.50;;;;;;5266036;28;20548;-49
2022/03/13 00:42:46;;;;;;;23.73;9.07;;;2.30;36.50;;;;;;5267943;28;20189;-47
2022/03/13 00:45:17;;;;;;;20.90;9.80;;;2.30;36.60;;;;;;5265478;28;20455;-47
2022/03/13 00:47:47;;;;;;;16.23;9.10;;;2.20;36.60;;;;;;5268295;28;20209;-49
2022/03/13 00:50:18;;;;;;;19.27;9.50;;;2.20;36.80;;;;;;5265913;28;20201;-49
2022/03/13 00:52:49;;;;;;;15.07;8.70;;;2.20;36.60;;;;;;5277674;28;20193;-48
2022/03/13 00:55:19;;;;;;;21.70;10.30;;;2.20;36.40;;;;;;5265632;28;20609;-47
2022/03/13 00:57:50;;;;;;;15.13;8.67;;;2.20;36.40;;;;;;5267849;28;20178;-48
2022/03/13 01:00:21;;;;;;;17.23;9.43;;;2.20;36.40;;;;;;5271358;28;20209;-49
2022/03/13 01:02:52;;;;;;;20.60;8.53;;;2.20;36.90;;;;;;5264448;28;20190;-48
2022/03/13 01:05:26;;;;;;;16.17;9.00;;;2.10;36.30;;;;;;5271103;28;20442;-49
2022/03/13 01:07:57;;;;;;;23.17;9.70;;;2.10;36.40;;;;;;5253891;28;20205;-48
2022/03/13 01:10:28;;;;;;;15.33;8.90;;;2.00;36.50;;;;;;5266312;28;21149;-48
2022/03/13 01:12:58;;;;;;;16.87;9.00;;;2.00;36.60;;;;;;5270243;28;20439;-46
2022/03/13 01:15:30;;;;;;;16.23;8.43;;;2.00;36.60;;;;;;5266374;28;20637;-47
2022/03/13 01:18:01;;;;;;;16.53;9.10;;;2.00;36.30;;;;;;5257254;28;20619;-48
2022/03/13 01:20:31;;;;;;;21.73;9.53;;;2.00;36.40;;;;;;5266798;28;20465;-48
2022/03/13 01:23:02;;;;;;;22.23;8.00;;;2.00;36.60;;;;;;5263961;28;20185;-48
2022/03/13 01:25:32;;;;;;;15.13;9.00;;;2.00;36.40;;;;;;5264914;28;20205;-49
2022/03/13 01:28:04;;;;;;;19.00;8.90;;;1.90;36.30;;;;;;5265828;28;20205;-47
2022/03/13 01:30:34;;;;;;;15.77;8.83;;;1.90;36.40;;;;;;5263711;28;20201;-50
2022/03/13 01:33:05;;;;;;;14.37;8.00;;;1.90;36.50;;;;;;5270514;28;20970;-48
2022/03/13 01:35:36;;;;;;;19.57;8.50;;;1.90;36.40;;;;;;5261709;28;20666;-48
2022/03/13 01:38:06;;;;;;;16.57;8.67;;;1.90;36.20;;;;;;5267154;28;20210;-49
2022/03/13 01:40:37;;;;;;;22.43;8.50;;;1.90;36.20;;;;;;5268352;28;20308;-48
2022/03/13 01:43:07;;;;;;;16.73;9.60;;;1.90;36.10;;;;;;5268865;28;20637;-47
2022/03/13 01:45:38;;;;;;;17.43;8.53;;;1.90;36.20;;;;;;5250355;28;20184;-47
2022/03/13 01:48:08;;;;;;;21.53;10.17;;;1.80;36.20;;;;;;5268924;28;20301;-48
2022/03/13 01:50:39;;;;;;;17.30;10.27;;;1.80;36.40;;;;;;5265920;28;20199;-47
2022/03/13 01:53:09;;;;;;;16.90;9.10;;;1.80;36.20;;;;;;5265599;28;20182;-47
2022/03/13 01:55:40;;;;;;;18.10;10.00;;;1.80;36.40;;;;;;5266027;28;20296;-46
2022/03/13 01:58:10;;;;;;;18.20;8.80;;;1.80;36.30;;;;;;5262985;28;20187;-50
2022/03/13 02:00:41;;;;;;;18.13;8.90;;;1.70;36.20;;;;;;5267920;28;20194;-48
2022/03/13 02:03:12;;;;;;;19.80;9.67;;;1.70;36.20;;;;;;5268197;28;20322;-48
2022/03/13 02:05:44;;;;;;;16.80;9.00;;;1.70;36.10;;;;;;5260687;28;20190;-50
2022/03/13 02:08:20;;;;;;;12.60;8.40;;;1.70;36.00;;;;;;5244955;28;20460;-47
2022/03/13 02:10:50;;;;;;;17.17;9.03;;;1.70;36.00;;;;;;5265273;28;20967;-48
2022/03/13 02:13:21;;;;;;;20.10;9.80;;;1.70;35.90;;;;;;5264843;28;20436;-48
2022/03/13 02:15:53;;;;;;;19.10;8.70;;;1.70;36.00;;;;;;5263700;28;20632;-48
2022/03/13 02:18:24;;;;;;;15.90;9.60;;;1.70;36.00;;;;;;5269689;28;20721;-48
2022/03/13 02:20:54;;;;;;;21.37;9.27;;;1.70;35.70;;;;;;5267047;28;20447;-47
2022/03/13 02:23:28;;;;;;;17.50;8.63;;;1.70;35.90;;;;;;5267805;28;20335;-47
2022/03/13 02:26:00;;;;;;;22.20;9.40;;;1.60;35.80;;;;;;5265739;28;20183;-47
2022/03/13 02:28:34;;;;;;;16.13;8.50;;;1.70;35.80;;;;;;5249767;28;20655;-48
2022/03/13 02:31:12;;;;;;;23.13;8.33;;;1.60;35.80;;;;;;5266510;28;20543;-47
2022/03/13 02:33:42;;;;;;;21.10;9.47;;;1.60;35.80;;;;;;5265863;28;20581;-48
2022/03/13 02:36:28;;;;;;;25.03;9.43;;;1.60;35.90;;;;;;5270728;28;20519;-48
2022/03/13 02:38:59;;;;;;;17.40;8.67;;;1.60;35.80;;;;;;5272161;28;20176;-47
2022/03/13 02:41:31;;;;;;;15.57;8.97;;;1.60;35.70;;;;;;5269439;28;20663;-48
2022/03/13 02:44:02;;;;;;;21.70;8.90;;;1.50;35.80;;;;;;5265358;28;20493;-48
2022/03/13 02:46:52;;;;;;;18.27;8.47;;;1.50;35.70;;;;;;5275800;28;20552;-48
2022/03/13 02:49:25;;;;;;;17.27;8.13;;;1.60;35.90;;;;;;5265373;28;20455;-47
2022/03/13 02:51:58;;;;;;;17.93;9.43;;;1.50;35.70;;;;;;5260832;28;20439;-48
2022/03/13 02:54:29;;;;;;;22.93;8.60;;;1.50;35.70;;;;;;5268370;28;20459;-47
2022/03/13 02:57:01;;;;;;;19.50;9.00;;;1.50;36.30;;;;;;5266333;28;20431;-47
2022/03/13 02:59:31;;;;;;;15.10;8.87;;;1.50;35.70;;;;;;5264026;28;20448;-46
2022/03/13 03:02:02;;;;;;;24.77;9.83;;;1.50;35.80;;;;;;5263652;28;20443;-49
2022/03/13 03:04:33;;;;;;;23.67;10.17;;;1.50;35.80;;;;;;5267070;28;20201;-48
2022/03/13 03:07:05;;;;;;;20.53;9.87;;;1.50;35.70;;;;;;5268760;28;20825;-49
2022/03/13 03:09:36;;;;;;;24.83;10.53;;;1.50;35.70;;;;;;5260412;28;20677;-48
2022/03/13 03:12:07;;;;;;;23.63;10.90;;;1.50;35.80;;;;;;5263239;28;20447;-47
2022/03/13 03:14:37;;;;;;;14.50;8.70;;;1.50;35.80;;;;;;5265618;28;20569;-48
2022/03/13 03:17:08;;;;;;;15.53;8.50;;;1.50;36.00;;;;;;5259582;28;20900;-48
2022/03/13 03:19:39;;;;;;;19.37;8.43;;;1.40;36.00;;;;;;5265530;28;20240;-49
2022/03/13 03:22:10;;;;;;;25.20;9.30;;;1.40;36.20;;;;;;5264732;28;20435;-48
2022/03/13 03:24:41;;;;;;;21.33;9.57;;;1.40;36.30;;;;;;5260272;28;20177;-47
2022/03/13 03:27:11;;;;;;;18.73;8.93;;;1.30;36.30;;;;;;5263166;28;20208;-50
2022/03/13 03:29:42;;;;;;;20.60;9.93;;;1.40;36.30;;;;;;5267075;28;20196;-46
2022/03/13 03:32:12;;;;;;;25.07;10.97;;;1.40;36.40;;;;;;5265947;28;20180;-47
2022/03/13 03:34:43;;;;;;;17.20;9.23;;;1.40;36.30;;;;;;5262298;28;20190;-48
2022/03/13 03:37:13;;;;;;;22.23;9.70;;;1.30;36.40;;;;;;5259241;28;20642;-47
2022/03/13 03:39:44;;;;;;;22.17;9.00;;;1.30;36.30;;;;;;5263812;28;20221;-48
2022/03/13 03:42:14;;;;;;;29.60;9.97;;;1.30;36.40;;;;;;5266382;28;20251;-50
2022/03/13 03:44:45;;;;;;;14.47;8.43;;;1.30;36.40;;;;;;5263437;28;20642;-49
2022/03/13 03:47:16;;;;;;;19.93;10.00;;;1.30;36.30;;;;;;5265171;28;20209;-47
2022/03/13 03:49:46;;;;;;;22.43;9.03;;;1.30;36.30;;;;;;5267789;28;20844;-48
2022/03/13 03:52:16;;;;;;;19.20;9.70;;;1.30;36.20;;;;;;5264842;28;20420;-48
2022/03/13 03:54:47;;;;;;;18.13;9.30;;;1.30;36.20;;;;;;5273363;28;20182;-48
2022/03/13 03:57:19;;;;;;;16.17;8.67;;;1.30;36.30;;;;;;5243776;28;20767;-49
2022/03/13 03:59:49;;;;;;;21.50;9.40;;;1.20;36.20;;;;;;5268406;28;20213;-48
2022/03/13 04:02:20;;;;;;;13.23;8.50;;;1.20;36.30;;;;;;5264169;28;20552;-47
2022/03/13 04:04:50;;;;;;;13.67;9.00;;;1.20;36.20;;;;;;5254910;28;20197;-46
2022/03/13 04:07:20;;;;;;;17.50;9.77;;;1.20;36.40;;;;;;5264792;28;20194;-48
2022/03/13 04:09:51;;;;;;;14.63;8.40;;;1.10;36.50;;;;;;5267919;28;20206;-48
2022/03/13 04:12:21;;;;;;;15.77;9.27;;;1.10;36.70;;;;;;5249989;28;20238;-49
2022/03/13 04:14:52;;;;;;;18.73;8.60;;;1.00;36.80;;;;;;5268580;28;20204;-49
2022/03/13 04:17:23;;;;;;;16.47;8.90;;;1.10;37.00;;;;;;5268542;28;20603;-48
2022/03/13 04:19:54;;;;;;;16.60;8.93;;;0.90;37.00;;;;;;5265136;28;20467;-50
2022/03/13 04:22:25;;;;;;;19.07;9.67;;;0.90;37.00;;;;;;5275536;28;20233;-47
2022/03/13 04:24:55;;;;;;;19.57;9.47;;;0.90;37.10;;;;;;5268951;28;21139;-49
2022/03/13 04:27:27;;;;;;;15.83;8.67;;;0.90;37.20;;;;;;5262552;28;20221;-49
2022/03/13 04:29:58;;;;;;;19.40;9.23;;;0.90;37.30;;;;;;5267931;28;20228;-48
2022/03/13 04:32:29;;;;;;;17.87;8.37;;;0.90;37.20;;;;;;5273612;28;20899;-49
2022/03/13 04:35:00;;;;;;;19.40;8.87;;;0.80;37.20;;;;;;5255005;28;20436;-47
2022/03/13 04:37:30;;;;;;;19.00;9.13;;;0.80;37.20;;;;;;5269579;28;20439;-47
2022/03/13 04:40:01;;;;;;;17.93;9.63;;;0.80;37.20;;;;;;5266259;28;20657;-48
2022/03/13 04:42:31;;;;;;;16.30;8.10;;;0.80;37.20;;;;;;5275747;28;20370;-47
2022/03/13 04:45:06;;;;;;;19.97;8.53;;;0.80;37.10;;;;;;5258479;28;20646;-48
2022/03/13 04:47:36;;;;;;;17.23;9.30;;;0.80;37.10;;;;;;5249831;28;20213;-46
2022/03/13 04:50:07;;;;;;;14.90;8.47;;;0.80;37.30;;;;;;5268203;28;20989;-47
2022/03/13 04:52:38;;;;;;;24.03;9.43;;;0.80;37.40;;;;;;5266870;28;20269;-47
2022/03/13 04:55:09;;;;;;;23.10;8.90;;;0.70;37.40;;;;;;5264084;28;20798;-48
2022/03/13 04:57:39;;;;;;;17.00;9.17;;;0.70;37.40;;;;;;5266447;28;20189;-48
2022/03/13 05:00:10;;;;;;;18.53;9.00;;;0.70;37.40;;;;;;5267835;28;20839;-47
2022/03/13 05:02:40;;;;;;;17.20;8.40;;;0.70;37.40;;;;;;5256709;28;20230;-49
2022/03/13 05:05:11;;;;;;;15.17;8.87;;;0.60;37.30;;;;;;5262798;28;20185;-48
2022/03/13 05:07:41;;;;;;;13.20;7.13;;;0.70;37.30;;;;;;5264613;28;20237;-47
2022/03/13 05:10:12;;;;;;;25.20;9.20;;;0.70;37.30;;;;;;5267260;28;20213;-47
2022/03/13 05:12:44;;;;;;;14.93;8.67;;;0.70;37.30;;;;;;5262958;28;20186;-47
2022/03/13 05:15:14;;;;;;;17.50;7.90;;;0.70;37.40;;;;;;5267394;28;20181;-47
2022/03/13 05:17:45;;;;;;;15.60;8.73;;;0.60;37.40;;;;;;5265930;28;20931;-47
2022/03/13 05:20:16;;;;;;;23.17;10.17;;;0.60;37.30;;;;;;5259430;28;20198;-49
2022/03/13 05:22:47;;;;;;;18.03;8.50;;;0.70;37.30;;;;;;5263900;28;20432;-46
2022/03/13 05:25:18;;;;;;;14.07;8.50;;;0.60;37.30;;;;;;5263930;28;20450;-47
2022/03/13 05:27:49;;;;;;;14.83;8.00;;;0.70;37.30;;;;;;5259190;28;20477;-47
2022/03/13 05:30:20;;;;;;;16.03;8.37;;;0.60;37.30;;;;;;5263922;28;20203;-47
2022/03/13 05:32:51;;;;;;;11.63;7.60;;;0.70;37.30;;;;;;5266877;28;20705;-47
2022/03/13 05:35:22;;;;;;;10.77;8.00;;;0.70;37.10;;;;;;5265822;28;20570;-47
2022/03/13 05:37:53;;;;;;;18.13;8.23;;;0.70;37.10;;;;;;5269121;28;20658;-50
2022/03/13 05:40:24;;;;;;;24.60;9.40;;;0.70;37.20;;;;;;5265436;28;20478;-48
2022/03/13 05:42:59;;;;;;;14.30;8.90;;;0.70;37.20;;;;;;5268372;28;20178;-48
2022/03/13 05:45:30;;;;;;;25.80;10.00;;;0.70;37.10;;;;;;5266377;28;21002;-47
2022/03/13 05:48:10;;;;;;;13.83;8.23;;;0.70;37.00;;;;;;5265872;28;20529;-49
2022/03/13 05:50:41;;;;;;;18.73;8.97;;;0.70;37.20;;;;;;5260359;28;20451;-49
2022/03/13 05:53:11;;;;;;;19.80;9.40;;;0.70;37.00;;;;;;5269768;28;20436;-48
2022/03/13 05:55:42;;;;;;;19.27;10.10;;;0.80;37.10;;;;;;5263731;28;20185;-49
2022/03/13 05:58:13;;;;;;;24.00;9.47;;;0.80;37.20;;;;;;5268441;28;20655;-49
2022/03/13 06:00:58;;;;;;;33.43;9.57;;;1.10;37.20;;;;;;5264572;28;20208;-50
2022/03/13 06:03:29;;;;;;;23.00;10.70;;;1.30;36.50;;;;;;5257974;28;20493;-48
2022/03/13 06:06:03;;;;;;;20.50;9.33;;;1.60;36.00;;;;;;5266471;28;20436;-47
2022/03/13 06:08:34;;;;;;;22.90;9.03;;;1.60;35.60;;;;;;5259624;28;20208;-45
2022/03/13 06:11:04;;;;;;;17.47;9.33;;;1.60;35.60;;;;;;5270146;28;20456;-48
2022/03/13 06:13:35;;;;;;;28.40;9.50;;;1.80;35.60;;;;;;5262051;28;20201;-47
2022/03/13 06:16:05;;;;;;;23.50;9.47;;;2.10;35.20;;;;;;5264419;28;20185;-48
2022/03/13 06:18:37;;;;;;;23.77;9.20;;;2.10;34.80;;;;;;5267560;28;20200;-48
2022/03/13 06:21:07;;;;;;;20.27;9.63;;;2.00;35.00;;;;;;5262314;28;20197;-48
2022/03/13 06:23:38;;;;;;;16.40;9.53;;;1.90;35.10;;;;;;5270778;28;20431;-49
2022/03/13 06:26:09;;;;;;;19.33;9.37;;;1.90;35.50;;;;;;5266590;28;20213;-47
2022/03/13 06:28:40;;;;;;;23.00;10.40;;;2.20;35.60;;;;;;5266990;28;20301;-49
2022/03/13 06:31:11;;;;;;;17.83;9.10;;;2.80;35.00;;;;;;5258267;28;21043;-48
2022/03/13 06:33:42;;;;;;;20.57;10.87;;;3.60;33.60;;;;;;5265272;28;20518;-47
2022/03/13 06:36:12;;;;;;;21.40;10.20;;;4.50;32.50;;;;;;5267247;28;20429;-48
2022/03/13 06:38:43;;;;;;;20.73;9.13;;;5.70;30.70;;;;;;5269135;28;20625;-48
2022/03/13 06:41:13;;;;;;;19.03;9.77;;;6.80;29.00;;;;;;5265123;28;20210;-48
2022/03/13 06:43:44;;;;;;;17.07;8.87;;;7.70;27.70;;;;;;5261609;28;20657;-47
2022/03/13 06:46:15;;;;;;;15.23;8.90;;;8.30;26.80;;;;;;5262267;28;20323;-47
2022/03/13 06:48:45;;;;;;;16.60;9.60;;;8.80;25.80;;;;;;5265735;28;20412;-48
2022/03/13 06:51:16;;;;;;;23.97;8.97;;;9.30;25.30;;;;;;5247787;28;20201;-48
2022/03/13 06:53:46;;;;;;;14.37;8.60;;;9.20;24.70;;;;;;5248649;28;20621;-48
2022/03/13 06:56:17;;;;;;;23.00;10.13;;;9.70;24.70;;;;;;5266843;28;20200;-47
2022/03/13 06:58:48;;;;;;;19.30;9.03;;;10.00;23.40;;;;;;5262323;28;20177;-48
2022/03/13 07:01:18;;;;;;;17.47;8.70;;;9.90;23.70;;;;;;5262782;28;20254;-47
2022/03/13 07:03:49;;;;;;;16.67;9.33;;;9.80;24.10;;;;;;5263989;28;20170;-47
2022/03/13 07:06:19;;;;;;;18.60;9.93;;;10.20;23.20;;;;;;5272151;28;20286;-49
2022/03/13 07:08:50;;;;;;;18.70;9.57;;;10.00;22.90;;;;;;5267907;28;20190;-47
2022/03/13 07:11:21;;;;;;;18.03;9.40;;;10.20;23.00;;;;;;5264941;28;20234;-47
2022/03/13 07:13:52;;;;;;;18.83;10.10;;;10.50;22.60;;;;;;5265853;28;20197;-47
2022/03/13 07:16:24;;;;;;;14.83;9.87;;;10.90;22.00;;;;;;5266106;28;20433;-49
2022/03/13 07:18:54;;;;;;;17.93;8.67;;;10.70;22.10;;;;;;5263127;28;20171;-48
2022/03/13 07:21:25;;;;;;;16.07;9.27;;;10.60;22.30;;;;;;5264255;28;20497;-49
2022/03/13 07:23:56;;;;;;;18.67;9.10;;;10.70;22.10;;;;;;5266315;28;20195;-49
2022/03/13 07:26:26;;;;;;;15.63;9.20;;;11.10;21.70;;;;;;5246207;28;20176;-47
2022/03/13 07:28:57;;;;;;;14.47;8.70;;;10.80;21.60;;;;;;5251129;28;21155;-48
2022/03/13 07:31:31;;;;;;;19.23;9.07;;;11.00;21.90;;;;;;5255495;28;20201;-48
2022/03/13 07:34:01;;;;;;;19.23;9.73;;;11.20;21.30;;;;;;5257735;28;20185;-49
2022/03/13 07:36:34;;;;;;;19.13;9.27;;;11.10;21.40;;;;;;5260460;28;20785;-47
2022/03/13 07:39:05;;;;;;;15.67;9.17;;;11.30;21.40;;;;;;5244185;28;20174;-49
2022/03/13 07:41:36;;;;;;;13.90;7.60;;;11.40;21.30;;;;;;5264737;28;20439;-49
2022/03/13 07:44:07;;;;;;;23.17;9.20;;;11.20;21.00;;;;;;5265517;28;20431;-49
2022/03/13 07:46:37;;;;;;;18.53;9.33;;;11.00;21.40;;;;;;5259124;28;20242;-48
2022/03/13 07:49:08;;;;;;;15.13;9.10;;;10.80;21.40;;;;;;5264871;28;20193;-49
2022/03/13 07:51:38;;;;;;;20.53;8.73;;;10.70;21.20;;;;;;5264239;28;20202;-49
2022/03/13 07:54:10;;;;;;;18.03;9.17;;;10.60;21.50;;;;;;5262518;28;20188;-48
2022/03/13 07:56:41;;;;;;;25.10;9.60;;;10.50;21.40;;;;;;5250731;28;21023;-48
2022/03/13 07:59:12;;;;;;;20.80;8.97;;;9.90;22.50;;;;;;5263053;28;20446;-50
2022/03/13 08:01:42;;;;;;;18.23;10.30;;;9.50;23.20;;;;;;5259166;28;20435;-48
2022/03/13 08:04:14;;;;;;;19.17;9.20;;;8.70;24.00;;;;;;5264850;28;20549;-48
2022/03/13 08:06:44;;;;;;;18.17;7.83;;;7.80;24.70;;;;;;5265007;28;20217;-48
2022/03/13 08:09:15;;;;;;;12.13;7.57;;;7.20;25.30;;;;;;5262538;28;20635;-48
2022/03/13 08:11:45;;;;;;;15.67;9.30;;;6.60;25.90;;;;;;5256362;28;20191;-47
2022/03/13 08:14:16;;;;;;;14.70;8.00;;;6.20;26.20;;;;;;5266475;28;20179;-49
2022/03/13 08:16:47;;;;;;;17.30;8.53;;;5.80;26.70;;;;;;5263103;28;20207;-48
2022/03/13 08:19:17;;;;;;;14.40;8.57;;;5.60;27.10;;;;;;5263889;28;20201;-47
2022/03/13 08:21:48;;;;;;;14.30;7.80;;;5.40;27.40;;;;;;5259030;28;20689;-51
2022/03/13 08:24:18;;;;;;;13.77;6.93;;;5.40;27.20;;;;;;5254655;28;20212;-48
2022/03/13 08:26:49;;;;;;;19.13;9.00;;;5.50;27.00;;;;;;5261386;28;20339;-47
2022/03/13 08:29:19;;;;;;;12.57;7.83;;;5.80;26.90;;;;;;5280583;28;20217;-51
2022/03/13 08:31:50;;;;;;;15.20;7.57;;;5.90;26.80;;;;;;5262938;28;20273;-47
2022/03/13 08:34:22;;;;;;;13.10;7.80;;;6.20;26.60;;;;;;5263171;28;20182;-47
2022/03/13 08:36:53;;;;;;;10.10;7.50;;;6.10;26.50;;;;;;5261349;28;20193;-50
2022/03/13 08:39:23;;;;;;;22.23;7.17;;;5.80;26.80;;;;;;5260119;28;20497;-51
2022/03/13 08:41:53;;;;;;;12.27;6.97;;;5.60;26.80;;;;;;5260226;28;20190;-48
2022/03/13 08:44:24;;;;;;;13.50;7.57;;;5.40;26.80;;;;;;5262812;28;20194;-50
2022/03/13 08:46:55;;;;;;;14.80;8.47;;;5.50;27.10;;;;;;5272121;28;20210;-48
2022/03/13 08:49:26;;;;;;;13.87;7.23;;;5.60;27.10;;;;;;5265448;28;20564;-49
2022/03/13 08:51:56;;;;;;;14.83;7.43;;;5.60;26.60;;;;;;5270093;28;20189;-47
2022/03/13 08:54:27;;;;;;;15.63;7.97;;;5.70;26.90;;;;;;5263206;28;20440;-53
2022/03/13 08:56:58;;;;;;;16.97;7.83;;;5.70;26.80;;;;;;5263980;28;20189;-48
2022/03/13 08:59:29;;;;;;;12.33;7.60;;;5.80;26.80;;;;;;5265314;28;20729;-48
2022/03/13 09:02:00;;;;;;;14.70;7.67;;;5.90;26.20;;;;;;5263054;28;20431;-47
2022/03/13 09:04:31;;;;;;;9.60;6.03;;;6.00;26.00;;;;;;5265665;28;20436;-48
2022/03/13 09:07:02;;;;;;;11.23;6.17;;;6.20;24.60;;;;;;5266057;28;20730;-49
2022/03/13 09:09:32;;;;;;;15.23;7.20;;;6.30;24.20;;;;;;5266623;28;20552;-47
2022/03/13 09:12:06;;;;;;;18.33;7.67;;;6.50;24.60;;;;;;5269292;28;20251;-47
2022/03/13 09:14:38;;;;;;;13.40;7.80;;;6.60;24.00;;;;;;5265830;28;20175;-48
2022/03/13 09:17:08;;;;;;;11.47;6.23;;;6.60;23.90;;;;;;5260156;28;20450;-48
2022/03/13 09:19:39;;;;;;;15.67;6.40;;;6.70;23.60;;;;;;5264582;28;20570;-49
2022/03/13 09:22:13;;;;;;;9.43;6.40;;;6.80;23.30;;;;;;5267127;28;20588;-48
2022/03/13 09:24:45;;;;;;;9.40;6.23;;;6.80;23.60;;;;;;5268891;28;20171;-49
2022/03/13 09:27:16;;;;;;;10.60;7.47;;;6.90;23.50;;;;;;5271286;28;20466;-49
2022/03/13 09:29:46;;;;;;;12.73;6.60;;;7.10;23.30;;;;;;5286288;27;21022;-48
2022/03/13 09:32:17;;;;;;;13.17;6.27;;;7.10;23.10;;;;;;5267028;28;20168;-48
2022/03/13 09:34:47;;;;;;;12.13;6.70;;;7.20;23.00;;;;;;5268822;28;20506;-50
2022/03/13 09:37:18;;;;;;;10.50;6.90;;;7.30;22.90;;;;;;5262326;28;20203;-48
2022/03/13 09:39:50;;;;;;;9.50;6.37;;;7.40;22.70;;;;;;5256505;28;20225;-50
2022/03/13 09:42:21;;;;;;;11.70;6.70;;;7.60;22.80;;;;;;5258888;28;20170;-48
2022/03/13 09:44:52;;;;;;;11.57;7.30;;;7.60;22.70;;;;;;5265310;28;20437;-50
2022/03/13 09:47:22;;;;;;;9.17;6.20;;;7.70;22.70;;;;;;5248000;28;20249;-50
2022/03/13 09:49:53;;;;;;;12.90;7.30;;;7.70;22.60;;;;;;5263652;28;20201;-49
2022/03/13 09:52:23;;;;;;;11.33;6.70;;;7.80;22.70;;;;;;5275212;28;20174;-47
2022/03/13 09:54:54;;;;;;;11.83;7.23;;;7.70;22.30;;;;;;5269749;28;20289;-50
2022/03/13 09:57:24;;;;;;;11.07;7.13;;;7.80;22.30;;;;;;5261168;28;20267;-50
2022/03/13 09:59:55;;;;;;;13.30;6.53;;;7.90;22.20;;;;;;5257797;28;20287;-49
2022/03/13 10:02:34;;;;;;;10.50;5.93;;;8.00;22.10;;;;;;5260305;28;20189;-50
2022/03/13 10:05:20;;;;;;;13.33;7.03;;;8.00;22.20;;;;;;5264460;28;20182;-49
2022/03/13 10:07:54;;;;;;;12.10;6.60;;;8.10;22.30;;;;;;5267550;28;20586;-49
2022/03/13 10:10:31;;;;;;;13.73;7.40;;;8.30;21.90;;;;;;5270074;28;20540;-48
2022/03/13 10:13:01;;;;;;;12.37;7.13;;;8.50;22.00;;;;;;5270082;28;20415;-51
2022/03/13 10:15:46;;;;;;;13.97;6.83;;;8.60;22.10;;;;;;5267298;28;20430;-47
2022/03/13 10:18:18;;;;;;;10.40;7.40;;;8.50;21.40;;;;;;5274473;28;20573;-47
2022/03/13 10:20:49;;;;;;;15.23;6.83;;;8.50;21.60;;;;;;5267662;28;20440;-49
2022/03/13 10:23:20;;;;;;;19.13;6.73;;;8.60;21.70;;;;;;5268433;28;20444;-48
2022/03/13 10:25:52;;;;;;;5.63;5.13;;;8.80;21.40;;;;;;5267834;28;20481;-48
2022/03/13 10:28:31;;;;;;;10.47;6.20;;;9.00;20.60;;;;;;5279394;27;20470;-48
2022/03/13 10:31:01;;;;;;;12.90;7.17;;;9.30;20.20;;;;;;5268241;28;20462;-48
2022/03/13 10:33:44;;;;;;;10.87;5.90;;;9.40;20.40;;;;;;5259857;28;20431;-50
2022/03/13 10:36:31;;;;;;;7.80;4.77;;;9.60;19.60;;;;;;5264879;28;20254;-48
2022/03/13 10:39:04;;;;;;;4.83;4.43;;;9.60;18.70;;;;;;5258231;28;20466;-48
2022/03/13 10:41:44;;;;;;;9.33;5.27;;;9.60;18.60;;;;;;5265271;28;20443;-48
2022/03/13 10:44:22;;;;;;;10.80;6.60;;;9.80;19.20;;;;;;5268878;28;20939;-48
2022/03/13 10:46:55;;;;;;;12.13;5.97;;;10.00;18.10;;;;;;5261841;28;20459;-48
2022/03/13 10:49:40;;;;;;;8.33;5.00;;;10.20;18.40;;;;;;5260810;28;20460;-47
2022/03/13 10:52:29;;;;;;;12.67;5.77;;;10.30;18.70;;;;;;5265670;28;20981;-51
2022/03/13 10:55:16;;;;;;;13.00;5.57;;;10.10;18.70;;;;;;5265629;28;20430;-49
2022/03/13 10:57:55;;;;;;;11.53;5.63;;;10.00;19.20;;;;;;5271609;28;20816;-49
2022/03/13 11:00:27;;;;;;;7.87;4.83;;;10.00;19.00;;;;;;5264807;28;20447;-50
2022/03/13 11:03:14;;;;;;;10.60;5.17;;;10.10;19.20;;;;;;5275110;28;20575;-50
2022/03/13 11:05:44;;;;;;;8.73;5.30;;;10.10;19.30;;;;;;5281326;27;20439;-50
2022/03/13 11:08:15;;;;;;;8.70;5.57;;;10.30;19.00;;;;;;5269382;28;20683;-52
2022/03/13 11:10:46;;;;;;;13.67;6.13;;;10.20;18.90;;;;;;5255427;28;20212;-51
2022/03/13 11:13:20;;;;;;;12.47;6.07;;;10.10;18.80;;;;;;5241459;28;20450;-48
2022/03/13 11:15:53;;;;;;;7.17;5.43;;;10.00;18.70;;;;;;5264862;28;20249;-49
2022/03/13 11:18:45;;;;;;;7.97;5.53;;;10.00;18.60;;;;;;5258085;28;20427;-50
2022/03/13 11:21:16;;;;;;;4.93;4.40;;;10.10;18.80;;;;;;5265444;28;20440;-48
2022/03/13 11:23:47;;;;;;;8.43;5.90;;;10.20;18.70;;;;;;5265924;28;21175;-48
2022/03/13 11:26:22;;;;;;;9.40;5.50;;;10.20;18.50;;;;;;5266469;28;20177;-50
2022/03/13 11:28:53;;;;;;;9.90;5.63;;;10.20;18.70;;;;;;5267841;28;20545;-49
2022/03/13 11:31:34;;;;;;;7.37;4.97;;;10.20;18.40;;;;;;5262059;28;21036;-51
2022/03/13 11:34:19;;;;;;;7.60;5.87;;;10.30;18.70;;;;;;5263096;28;20661;-49
2022/03/13 11:36:50;;;;;;;9.23;5.60;;;10.50;18.60;;;;;;5268509;28;20444;-51
2022/03/13 11:41:55;;;;;;;10.20;6.20;;;10.60;19.00;;;;;;5192900;28;20486;-48
2022/03/13 11:44:30;;;;;;;14.40;7.20;;;10.70;19.40;;;;;;5197554;28;20438;-50
2022/03/13 11:47:18;;;;;;;9.13;5.90;;;10.80;20.00;;;;;;5205849;27;20207;-50
2022/03/13 11:49:48;;;;;;;12.30;7.50;;;10.90;20.10;;;;;;5193179;28;20471;-50
2022/03/13 11:52:26;;;;;;;16.30;7.63;;;10.80;19.90;;;;;;5181762;28;21112;-49
2022/03/13 11:54:58;;;;;;;10.03;7.73;;;10.80;20.70;;;;;;5200316;28;20204;-49
2022/03/13 11:57:42;;;;;;;15.80;8.10;;;10.70;21.20;;;;;;5205501;28;20431;-51
2022/03/13 12:00:12;;;;;;;12.20;6.77;;;10.60;21.60;;;;;;5197850;28;20486;-51
2022/03/13 12:02:43;;;;;;;15.73;8.10;;;10.60;21.70;;;;;;5197499;28;20870;-50
2022/03/13 12:05:26;;;;;;;17.60;8.50;;;10.70;22.10;;;;;;5180405;28;20233;-52
2022/03/13 12:08:08;;;;;;;19.73;9.10;;;10.70;22.10;;;;;;5168196;28;20550;-51
2022/03/13 12:10:41;;;;;;;14.77;8.50;;;10.70;22.10;;;;;;5178041;28;20454;-52
2022/03/13 12:13:20;;;;;;;12.40;7.90;;;10.70;22.30;;;;;;5177576;28;20431;-52
2022/03/13 12:15:51;;;;;;;12.40;7.50;;;10.70;22.30;;;;;;5165959;28;20438;-48
2022/03/13 12:18:32;;;;;;;11.93;7.87;;;10.60;21.90;;;;;;5182561;28;20504;-50
2022/03/13 12:21:09;;;;;;;12.47;7.40;;;10.70;22.00;;;;;;5200491;28;20454;-51
2022/03/13 12:23:40;;;;;;;13.47;7.57;;;10.80;22.10;;;;;;5184840;28;21019;-49
2022/03/13 12:26:16;;;;;;;13.00;7.47;;;10.70;21.90;;;;;;5196384;28;20467;-51
2022/03/13 12:28:48;;;;;;;13.30;8.03;;;10.70;21.80;;;;;;5177348;28;20601;-51
2022/03/13 12:31:19;;;;;;;12.37;7.73;;;10.80;21.90;;;;;;5177544;28;20474;-52
2022/03/13 12:33:51;;;;;;;10.40;7.57;;;10.80;21.90;;;;;;5170802;28;20427;-50
2022/03/13 12:36:24;;;;;;;20.13;8.37;;;11.00;22.00;;;;;;5177902;28;20648;-51
2022/03/13 12:38:56;;;;;;;12.67;7.53;;;11.10;21.80;;;;;;5175337;28;20439;-50
2022/03/13 12:41:28;;;;;;;19.50;8.00;;;11.10;21.70;;;;;;5179475;28;20508;-51
2022/03/13 12:44:04;;;;;;;14.70;7.77;;;11.00;21.80;;;;;;5186635;28;20496;-51
2022/03/13 12:46:36;;;;;;;14.90;7.90;;;11.00;21.70;;;;;;5181190;28;20442;-51
2022/03/13 12:49:10;;;;;;;10.33;7.23;;;11.00;21.90;;;;;;5195111;28;20487;-50
2022/03/13 12:51:46;;;;;;;17.27;7.30;;;11.10;21.80;;;;;;5175804;28;20443;-51
2022/03/13 12:54:19;;;;;;;12.87;7.90;;;11.10;21.70;;;;;;5183917;28;20580;-52
2022/03/13 12:56:56;;;;;;;11.83;7.67;;;11.20;21.80;;;;;;5186868;28;20478;-51
2022/03/13 12:59:31;;;;;;;18.03;6.83;;;11.20;21.60;;;;;;5185121;28;20426;-50
2022/03/13 13:02:10;;;;;;;11.20;6.97;;;11.10;21.50;;;;;;5172601;28;20927;-51
2022/03/13 13:04:43;;;;;;;10.33;6.80;;;11.20;21.60;;;;;;5180257;28;20465;-53
2022/03/13 13:07:15;;;;;;;12.63;7.33;;;11.20;21.40;;;;;;5186210;28;20524;-51
2022/03/13 13:09:48;;;;;;;10.57;6.27;;;11.20;21.30;;;;;;5183777;28;20459;-52
2022/03/13 13:12:21;;;;;;;11.73;8.17;;;11.30;21.50;;;;;;5201237;28;20438;-52
2022/03/13 13:14:52;;;;;;;11.73;7.10;;;11.40;21.30;;;;;;5186950;28;20431;-51